Roxbury Crossing, Massachusetts
Current Conditions -  °F | °C
As of 10:54 PM on Saturday 24 Jan 2015 (Local Time) from KBOS Reporting Station
Scattered Clouds Scattered Clouds  
Wind Chill: 24°   Ceiling: Unl
Heat Index: 32°   Visibility: 10mi
Dew Point: 27°   Wind: 10mph
Humidity: 82%   Direction: 280°W
Pressure: 29.27"   Gusts: NA
Location:  42.3325°N, 71.0965°W
Report Text: KBOS 250354Z 28009KT 10SM SCT150 SCT280 00/M03 A2927 RMK AO2 SLP912 T00001028
Loading
Personal Weather Stations






























Interactive Weather Map New forecast layout! Learn more

10-Day Weather Forecast

Advertisements
Track Severe Weather on mobile